Time;durP1;ratioP1;P1;durP2;ratioP2;P2;SDS_P1;SDS_P2;PMS_P1;PMS_P2;Temp;Humidity;BMP_temperature;BMP_pressure;BME280_temperature;BME280_humidity;BME280_pressure;Samples;Min_cycle;Max_cycle;Signal;HPM_P1;HPM_P2
2024/04/06 00:02:18;;;;;;;14.82;2.67;;;;;;;;;;5034416;28;20479;-76
2024/04/06 00:04:43;;;;;;;20.25;3.55;;;;;;;;;;5034496;28;20045;-75
2024/04/06 00:07:09;;;;;;;18.02;3.35;;;;;;;;;;5033414;28;20051;-76
2024/04/06 00:09:36;;;;;;;18.17;3.38;;;;;;;;;;5017842;28;20044;-75
2024/04/06 00:12:04;;;;;;;17.13;3.33;;;;;;;;;;5034332;28;20372;-75
2024/04/06 00:14:30;;;;;;;19.45;3.28;;;;;;;;;;5033129;28;20072;-75
2024/04/06 00:16:56;;;;;;;20.05;4.05;;;;;;;;;;5032530;28;20038;-75
2024/04/06 00:19:21;;;;;;;15.32;3.63;;;;;;;;;;5032000;28;20037;-75
2024/04/06 00:21:47;;;;;;;17.63;3.63;;;;;;;;;;5032484;28;20119;-75
2024/04/06 00:24:13;;;;;;;19.77;3.40;;;;;;;;;;5035814;28;20431;-76
2024/04/06 00:26:39;;;;;;;25.50;3.80;;;;;;;;;;5044957;28;20048;-75
2024/04/06 00:29:05;;;;;;;21.45;4.15;;;;;;;;;;5035683;28;20403;-73
2024/04/06 00:31:30;;;;;;;12.73;3.10;;;;;;;;;;5038187;28;20045;-75
2024/04/06 00:34:01;;;;;;;21.60;4.50;;;;;;;;;;5038024;28;20057;-75
2024/04/06 00:36:29;;;;;;;15.60;3.38;;;;;;;;;;5037461;28;20467;-76
2024/04/06 00:38:55;;;;;;;13.93;3.03;;;;;;;;;;5037908;28;20179;-75
2024/04/06 00:41:21;;;;;;;13.40;3.58;;;;;;;;;;5037347;28;20071;-75
2024/04/06 00:43:47;;;;;;;20.70;3.95;;;;;;;;;;5021660;28;20418;-75
2024/04/06 00:46:13;;;;;;;17.48;3.53;;;;;;;;;;5037500;28;20065;-75
2024/04/06 00:48:39;;;;;;;18.15;3.33;;;;;;;;;;5037652;28;20048;-76
2024/04/06 00:51:06;;;;;;;22.90;4.15;;;;;;;;;;5037320;28;20049;-75
2024/04/06 00:53:34;;;;;;;20.77;3.75;;;;;;;;;;5037511;28;20437;-75
2024/04/06 00:56:00;;;;;;;24.70;4.57;;;;;;;;;;5037506;28;20078;-76
2024/04/06 00:58:27;;;;;;;19.88;4.22;;;;;;;;;;5020641;28;20040;-75
2024/04/06 01:00:53;;;;;;;21.15;3.85;;;;;;;;;;5020859;28;20483;-76
2024/04/06 01:03:19;;;;;;;20.00;4.05;;;;;;;;;;5020416;28;20037;-75
2024/04/06 01:05:45;;;;;;;18.10;4.10;;;;;;;;;;5037490;28;20047;-75
2024/04/06 01:08:11;;;;;;;21.98;3.63;;;;;;;;;;5020346;28;20041;-75
2024/04/06 01:10:37;;;;;;;21.67;4.60;;;;;;;;;;5020772;28;20456;-75
2024/04/06 01:13:03;;;;;;;16.23;3.40;;;;;;;;;;5037244;28;20068;-76
2024/04/06 01:15:32;;;;;;;27.30;4.30;;;;;;;;;;5020554;28;20045;-75
2024/04/06 01:17:58;;;;;;;;;;;;;;;;;;5037371;28;20464;-75
2024/04/06 01:20:25;;;;;;;20.17;3.97;;;;;;;;;;5036954;28;19921;-75
2024/04/06 01:22:51;;;;;;;19.48;4.38;;;;;;;;;;5037075;28;20051;-74
2024/04/06 01:25:17;;;;;;;19.73;4.10;;;;;;;;;;5036442;28;20476;-76
2024/04/06 01:27:44;;;;;;;32.83;5.10;;;;;;;;;;5043630;28;20438;-75
2024/04/06 01:30:13;;;;;;;25.52;4.45;;;;;;;;;;5053049;28;20478;-75
2024/04/06 01:32:53;;;;;;;28.98;4.80;;;;;;;;;;5036840;28;20049;-75
2024/04/06 01:35:19;;;;;;;24.38;4.95;;;;;;;;;;5036002;28;20107;-75
2024/04/06 01:37:45;;;;;;;28.20;4.85;;;;;;;;;;5037028;28;20500;-75
2024/04/06 01:40:11;;;;;;;32.38;5.03;;;;;;;;;;5052973;28;20486;-75
2024/04/06 01:42:37;;;;;;;26.98;4.60;;;;;;;;;;5020344;28;20467;-75
2024/04/06 01:45:05;;;;;;;25.27;4.45;;;;;;;;;;5020248;28;20102;-75
2024/04/06 01:47:30;;;;;;;30.48;5.35;;;;;;;;;;5036495;28;20045;-76
2024/04/06 01:50:04;;;;;;;31.73;5.60;;;;;;;;;;5036746;28;20075;-75
2024/04/06 01:52:30;;;;;;;31.70;5.10;;;;;;;;;;5019837;28;20048;-76
2024/04/06 01:54:59;;;;;;;29.73;5.13;;;;;;;;;;5020024;28;20040;-75
2024/04/06 01:57:24;;;;;;;37.28;6.20;;;;;;;;;;5019378;28;20037;-75
2024/04/06 01:59:50;;;;;;;25.75;5.22;;;;;;;;;;5036322;28;20041;-76
2024/04/06 02:02:16;;;;;;;32.58;5.18;;;;;;;;;;5019416;28;20549;-75
2024/04/06 02:04:42;;;;;;;34.78;5.85;;;;;;;;;;5036198;28;20049;-75
2024/04/06 02:07:08;;;;;;;38.60;5.43;;;;;;;;;;5019204;28;20052;-75
2024/04/06 02:09:34;;;;;;;33.25;6.72;;;;;;;;;;5036452;28;20403;-76
2024/04/06 02:12:00;;;;;;;36.92;5.97;;;;;;;;;;5003354;28;20037;-75
2024/04/06 02:14:25;;;;;;;29.45;5.47;;;;;;;;;;5035643;28;20037;-75
2024/04/06 02:16:51;;;;;;;35.38;5.43;;;;;;;;;;5035958;28;20045;-75
2024/04/06 02:19:17;;;;;;;40.22;6.63;;;;;;;;;;5035684;28;20037;-75
2024/04/06 02:21:43;;;;;;;37.28;6.15;;;;;;;;;;5036169;28;20041;-74
2024/04/06 02:24:08;;;;;;;43.13;6.85;;;;;;;;;;5018817;28;20064;-75
2024/04/06 02:26:34;;;;;;;42.05;7.05;;;;;;;;;;5044314;28;20048;-76
2024/04/06 02:29:00;;;;;;;38.28;6.32;;;;;;;;;;5035721;28;20041;-76
2024/04/06 02:31:27;;;;;;;43.83;6.32;;;;;;;;;;5035302;28;20033;-75
2024/04/06 02:33:53;;;;;;;35.78;6.32;;;;;;;;;;5019286;28;20045;-76
2024/04/06 02:36:19;;;;;;;42.35;7.38;;;;;;;;;;5035266;28;20438;-75
2024/04/06 02:38:47;;;;;;;50.35;7.00;;;;;;;;;;5035635;28;20049;-75
2024/04/06 02:41:13;;;;;;;38.33;7.07;;;;;;;;;;5035167;28;20047;-75
2024/04/06 02:43:39;;;;;;;46.65;7.05;;;;;;;;;;5035604;28;20041;-75
2024/04/06 02:46:04;;;;;;;47.03;6.60;;;;;;;;;;5018879;28;20095;-75
2024/04/06 02:48:30;;;;;;;46.60;7.05;;;;;;;;;;5019171;28;20045;-74
2024/04/06 02:50:56;;;;;;;39.33;6.10;;;;;;;;;;5018982;28;20048;-75
2024/04/06 02:53:22;;;;;;;46.15;7.22;;;;;;;;;;5018545;28;20049;-75
2024/04/06 02:55:48;;;;;;;39.83;6.85;;;;;;;;;;5035319;28;20490;-76
2024/04/06 02:58:14;;;;;;;38.03;6.70;;;;;;;;;;5018558;28;20037;-75
2024/04/06 03:00:39;;;;;;;52.35;7.38;;;;;;;;;;5035182;28;20098;-75
2024/04/06 03:03:05;;;;;;;44.78;7.28;;;;;;;;;;5035033;28;20041;-76
2024/04/06 03:05:31;;;;;;;40.38;7.10;;;;;;;;;;5018873;28;20047;-75
2024/04/06 03:07:57;;;;;;;37.00;6.60;;;;;;;;;;5035180;28;20041;-75
2024/04/06 03:10:23;;;;;;;39.55;7.20;;;;;;;;;;5034927;28;20041;-75
2024/04/06 03:12:49;;;;;;;39.85;6.30;;;;;;;;;;5035015;28;20083;-75
2024/04/06 03:15:14;;;;;;;47.45;7.53;;;;;;;;;;5051184;28;20110;-75
2024/04/06 03:17:41;;;;;;;39.90;5.80;;;;;;;;;;5035113;28;20098;-75
2024/04/06 03:20:08;;;;;;;37.38;7.53;;;;;;;;;;5034691;28;20051;-76
2024/04/06 03:22:34;;;;;;;47.33;7.38;;;;;;;;;;5035141;28;20048;-75
2024/04/06 03:25:00;;;;;;;31.70;6.03;;;;;;;;;;5018782;28;20523;-75
2024/04/06 03:27:26;;;;;;;34.85;6.32;;;;;;;;;;5042855;28;20041;-75
2024/04/06 03:29:51;;;;;;;26.52;6.35;;;;;;;;;;5035001;28;20051;-75
2024/04/06 03:32:17;;;;;;;39.35;6.85;;;;;;;;;;5034087;28;20049;-75
2024/04/06 03:34:43;;;;;;;40.47;7.03;;;;;;;;;;5018387;28;20040;-75
2024/04/06 03:37:09;;;;;;;38.90;6.78;;;;;;;;;;5034512;28;20048;-75
2024/04/06 03:39:35;;;;;;;40.67;6.45;;;;;;;;;;5034916;28;20055;-76
2024/04/06 03:42:01;;;;;;;40.22;6.95;;;;;;;;;;5035018;28;20044;-75
2024/04/06 03:44:27;;;;;;;40.25;5.95;;;;;;;;;;5034411;28;20120;-75
2024/04/06 03:46:53;;;;;;;41.28;6.78;;;;;;;;;;5034759;28;20094;-75
2024/04/06 03:49:18;;;;;;;38.35;6.35;;;;;;;;;;5034375;28;20120;-75
2024/04/06 03:51:44;;;;;;;41.80;6.95;;;;;;;;;;5034686;28;20502;-76
2024/04/06 03:54:10;;;;;;;41.90;6.13;;;;;;;;;;5017821;28;20037;-75
2024/04/06 03:56:37;;;;;;;47.03;7.35;;;;;;;;;;5034614;28;20067;-76
2024/04/06 03:59:03;;;;;;;34.33;7.10;;;;;;;;;;5038347;28;20053;-75
2024/04/06 04:01:28;;;;;;;36.53;6.72;;;;;;;;;;5005279;28;20440;-75
2024/04/06 04:03:54;;;;;;;41.95;6.82;;;;;;;;;;5038558;28;20061;-75
2024/04/06 04:06:20;;;;;;;38.63;6.68;;;;;;;;;;5037956;28;20055;-75
2024/04/06 04:08:46;;;;;;;33.40;7.07;;;;;;;;;;5038435;28;20411;-75
2024/04/06 04:11:11;;;;;;;45.78;6.32;;;;;;;;;;5038179;28;20051;-75
2024/04/06 04:13:37;;;;;;;32.83;6.05;;;;;;;;;;5071460;28;20052;-75
2024/04/06 04:16:04;;;;;;;42.50;7.88;;;;;;;;;;5038296;28;20040;-75
2024/04/06 04:18:30;;;;;;;41.13;7.18;;;;;;;;;;5038076;28;20045;-76
2024/04/06 04:20:55;;;;;;;35.15;5.72;;;;;;;;;;5021835;28;20475;-75
2024/04/06 04:23:21;;;;;;;39.45;6.47;;;;;;;;;;5004797;28;20124;-75
2024/04/06 04:25:47;;;;;;;48.63;6.78;;;;;;;;;;5041029;28;20041;-75
2024/04/06 04:28:13;;;;;;;40.47;6.43;;;;;;;;;;5040049;28;20049;-75
2024/04/06 04:30:38;;;;;;;36.25;6.63;;;;;;;;;;5021845;28;20059;-76
2024/04/06 04:33:04;;;;;;;41.80;6.88;;;;;;;;;;5037584;28;20052;-75
2024/04/06 04:35:30;;;;;;;40.80;6.35;;;;;;;;;;5037889;28;20098;-75
2024/04/06 04:37:56;;;;;;;36.17;5.93;;;;;;;;;;5037820;28;20072;-75
2024/04/06 04:40:22;;;;;;;38.30;6.07;;;;;;;;;;5020894;28;20037;-76
2024/04/06 04:42:48;;;;;;;46.38;6.85;;;;;;;;;;5037708;28;20045;-75
2024/04/06 04:45:14;;;;;;;28.92;5.47;;;;;;;;;;5037388;28;20369;-75
2024/04/06 04:47:41;;;;;;;33.53;6.38;;;;;;;;;;5021370;28;20391;-75
2024/04/06 04:50:10;;;;;;;39.40;5.72;;;;;;;;;;5020991;28;20045;-75
2024/04/06 04:52:37;;;;;;;34.40;5.70;;;;;;;;;;5021218;28;20059;-76
2024/04/06 04:55:04;;;;;;;27.75;5.80;;;;;;;;;;5037729;28;20033;-75
2024/04/06 04:57:30;;;;;;;38.80;5.68;;;;;;;;;;5037233;28;20044;-75
2024/04/06 04:59:57;;;;;;;34.00;5.03;;;;;;;;;;5020998;28;20071;-75
2024/04/06 05:02:24;;;;;;;38.05;6.53;;;;;;;;;;5037249;28;20040;-75
2024/04/06 05:04:50;;;;;;;30.27;4.93;;;;;;;;;;5037361;28;20406;-76
2024/04/06 05:07:18;;;;;;;39.75;6.05;;;;;;;;;;5037175;28;20514;-75
2024/04/06 05:09:45;;;;;;;29.23;5.37;;;;;;;;;;5036205;28;20099;-76
2024/04/06 05:12:10;;;;;;;34.55;6.18;;;;;;;;;;5036845;28;20045;-75
2024/04/06 05:14:36;;;;;;;22.42;4.88;;;;;;;;;;5037531;28;20041;-76
2024/04/06 05:17:02;;;;;;;32.17;5.90;;;;;;;;;;5037209;28;20043;-75
2024/04/06 05:19:27;;;;;;;28.60;6.45;;;;;;;;;;5036783;28;20047;-76
2024/04/06 05:21:53;;;;;;;33.55;5.32;;;;;;;;;;5037234;28;20041;-76
2024/04/06 05:24:19;;;;;;;33.92;5.68;;;;;;;;;;5020143;28;20127;-75
2024/04/06 05:26:45;;;;;;;31.02;5.97;;;;;;;;;;5028942;28;20041;-75
2024/04/06 05:29:11;;;;;;;38.90;5.18;;;;;;;;;;5036049;28;20063;-75
2024/04/06 05:31:39;;;;;;;37.10;6.60;;;;;;;;;;5020730;28;20037;-75
2024/04/06 05:34:05;;;;;;;25.50;5.25;;;;;;;;;;5020023;28;20575;-75
2024/04/06 05:36:31;;;;;;;40.47;5.80;;;;;;;;;;5020440;28;20045;-75
2024/04/06 05:38:57;;;;;;;27.02;4.63;;;;;;;;;;5036932;28;20037;-76
2024/04/06 05:41:22;;;;;;;32.22;5.25;;;;;;;;;;5036415;28;20444;-75
2024/04/06 05:43:48;;;;;;;32.70;5.35;;;;;;;;;;5036826;28;20045;-75
2024/04/06 05:46:14;;;;;;;32.85;6.10;;;;;;;;;;5052858;28;20045;-75
2024/04/06 05:48:40;;;;;;;36.03;5.38;;;;;;;;;;5020178;28;20076;-75
2024/04/06 05:51:06;;;;;;;38.53;5.20;;;;;;;;;;5052899;28;20103;-74
2024/04/06 05:53:31;;;;;;;24.00;5.60;;;;;;;;;;5036241;28;20044;-75
2024/04/06 05:55:58;;;;;;;38.85;5.20;;;;;;;;;;5036463;28;20037;-76
2024/04/06 05:58:24;;;;;;;26.17;4.68;;;;;;;;;;5036195;28;20053;-75
2024/04/06 06:00:50;;;;;;;29.38;4.45;;;;;;;;;;5035308;28;20036;-75
2024/04/06 06:03:15;;;;;;;27.73;4.75;;;;;;;;;;5018148;28;20044;-76
2024/04/06 06:05:41;;;;;;;24.30;4.85;;;;;;;;;;5019012;28;20068;-75
2024/04/06 06:08:07;;;;;;;28.15;4.57;;;;;;;;;;5019105;28;20365;-75
2024/04/06 06:10:33;;;;;;;29.70;4.53;;;;;;;;;;5035997;28;20045;-76
2024/04/06 06:12:59;;;;;;;33.35;5.07;;;;;;;;;;5036075;28;20043;-76
2024/04/06 06:15:25;;;;;;;26.80;4.80;;;;;;;;;;5018765;28;20399;-76
2024/04/06 06:17:50;;;;;;;29.50;4.70;;;;;;;;;;5019436;28;20053;-75
2024/04/06 06:20:17;;;;;;;25.50;4.65;;;;;;;;;;5035393;28;20068;-76
2024/04/06 06:22:43;;;;;;;25.30;4.10;;;;;;;;;;5036032;28;20037;-76
2024/04/06 06:25:09;;;;;;;24.88;4.43;;;;;;;;;;5035190;28;20154;-76
2024/04/06 06:27:34;;;;;;;29.75;4.22;;;;;;;;;;5043532;28;20055;-76
2024/04/06 06:30:00;;;;;;;26.98;4.95;;;;;;;;;;5035628;28;20037;-76
2024/04/06 06:32:26;;;;;;;31.48;4.43;;;;;;;;;;5035163;28;20033;-75
2024/04/06 06:34:52;;;;;;;25.50;4.32;;;;;;;;;;5034304;28;20041;-76
2024/04/06 06:37:18;;;;;;;30.65;5.35;;;;;;;;;;5034013;28;20040;-76
2024/04/06 06:39:44;;;;;;;43.17;5.43;;;;;;;;;;5018277;28;20128;-76
2024/04/06 06:42:11;;;;;;;30.88;4.38;;;;;;;;;;5026047;28;20487;-78
2024/04/06 06:44:37;;;;;;;33.58;4.72;;;;;;;;;;5001035;28;20044;-77
2024/04/06 06:47:05;;;;;;;31.27;5.05;;;;;;;;;;5032364;28;20039;-76
2024/04/06 06:49:32;;;;;;;30.65;4.32;;;;;;;;;;5016869;28;20386;-77
2024/04/06 06:51:58;;;;;;;23.63;4.70;;;;;;;;;;5033637;28;20033;-76
2024/04/06 06:54:24;;;;;;;29.65;5.22;;;;;;;;;;5032922;28;20544;-76
2024/04/06 06:56:49;;;;;;;26.80;4.70;;;;;;;;;;5017377;28;20043;-77
2024/04/06 06:59:15;;;;;;;34.83;5.00;;;;;;;;;;5032980;28;20439;-79
2024/04/06 07:01:41;;;;;;;24.80;4.07;;;;;;;;;;5033633;28;20044;-77
2024/04/06 07:04:07;;;;;;;25.20;4.22;;;;;;;;;;5032883;28;20418;-76
2024/04/06 07:06:32;;;;;;;26.67;4.25;;;;;;;;;;5033682;28;20048;-77
2024/04/06 07:08:58;;;;;;;33.88;3.72;;;;;;;;;;4997674;28;20048;-77
2024/04/06 07:11:24;;;;;;;20.25;3.60;;;;;;;;;;5033050;28;20049;-78
2024/04/06 07:13:50;;;;;;;23.08;4.13;;;;;;;;;;5016663;28;20485;-76
2024/04/06 07:16:16;;;;;;;23.48;4.20;;;;;;;;;;5032870;28;20399;-75
2024/04/06 07:18:42;;;;;;;23.58;4.00;;;;;;;;;;5016882;28;20044;-76
2024/04/06 07:21:12;;;;;;;20.15;3.13;;;;;;;;;;5032049;28;20051;-76
2024/04/06 07:23:38;;;;;;;26.00;4.07;;;;;;;;;;5033372;28;20045;-77
2024/04/06 07:26:05;;;;;;;22.60;3.63;;;;;;;;;;5017420;28;20059;-76
2024/04/06 07:28:31;;;;;;;29.05;4.47;;;;;;;;;;5046226;28;20132;-76
2024/04/06 07:30:57;;;;;;;28.25;3.88;;;;;;;;;;5016915;28;20044;-76
2024/04/06 07:33:22;;;;;;;26.13;4.18;;;;;;;;;;5031803;28;20438;-77
2024/04/06 07:35:49;;;;;;;21.00;3.28;;;;;;;;;;5016643;28;20036;-76
2024/04/06 07:38:15;;;;;;;27.27;4.07;;;;;;;;;;5014857;28;20041;-76
2024/04/06 07:40:41;;;;;;;26.38;3.95;;;;;;;;;;5016232;28;20039;-76
2024/04/06 07:43:07;;;;;;;19.70;3.35;;;;;;;;;;5032005;28;20056;-76
2024/04/06 07:45:33;;;;;;;17.58;4.47;;;;;;;;;;5032567;28;20403;-76
2024/04/06 07:47:58;;;;;;;17.63;3.28;;;;;;;;;;5033920;28;20472;-76
2024/04/06 07:50:24;;;;;;;31.10;5.22;;;;;;;;;;5032691;28;20045;-75
2024/04/06 07:52:50;;;;;;;24.17;3.88;;;;;;;;;;5003703;28;20041;-76
2024/04/06 07:55:16;;;;;;;23.80;3.05;;;;;;;;;;5032578;28;20060;-76
2024/04/06 07:57:46;;;;;;;22.48;3.60;;;;;;;;;;5033212;28;20120;-76
2024/04/06 08:00:12;;;;;;;27.77;4.18;;;;;;;;;;5032184;28;20045;-76
2024/04/06 08:02:41;;;;;;;23.17;3.50;;;;;;;;;;5033248;28;20526;-76
2024/04/06 08:05:08;;;;;;;24.60;3.58;;;;;;;;;;5016035;28;20091;-76
2024/04/06 08:07:34;;;;;;;19.95;3.78;;;;;;;;;;5033034;28;20037;-76
2024/04/06 08:10:01;;;;;;;25.55;3.58;;;;;;;;;;5032876;28;20033;-76
2024/04/06 08:12:27;;;;;;;32.28;3.60;;;;;;;;;;5032694;28;20041;-76
2024/04/06 08:14:53;;;;;;;22.40;4.07;;;;;;;;;;5030491;28;20059;-76
2024/04/06 08:17:20;;;;;;;23.05;3.67;;;;;;;;;;5015420;28;20068;-76
2024/04/06 08:19:45;;;;;;;21.15;3.63;;;;;;;;;;5014730;28;20045;-76
2024/04/06 08:22:12;;;;;;;24.25;3.20;;;;;;;;;;5015908;28;20068;-76
2024/04/06 08:24:41;;;;;;;25.55;3.60;;;;;;;;;;5032506;28;20039;-76
2024/04/06 08:27:07;;;;;;;22.27;3.80;;;;;;;;;;5035761;28;20059;-76
2024/04/06 08:29:33;;;;;;;24.80;3.50;;;;;;;;;;5033783;28;20408;-76
2024/04/06 08:31:58;;;;;;;25.10;3.65;;;;;;;;;;5016407;28;20056;-75
2024/04/06 08:34:24;;;;;;;28.05;3.30;;;;;;;;;;5032382;28;20041;-75
2024/04/06 08:36:50;;;;;;;30.98;4.43;;;;;;;;;;5016311;28;20052;-76
2024/04/06 08:39:16;;;;;;;25.75;3.63;;;;;;;;;;5031717;28;20064;-77
2024/04/06 08:41:43;;;;;;;33.15;4.25;;;;;;;;;;5016315;28;20041;-78
2024/04/06 08:44:13;;;;;;;30.40;4.75;;;;;;;;;;5034034;28;20067;-78
2024/04/06 08:46:40;;;;;;;20.58;3.70;;;;;;;;;;5019609;28;20090;-77
2024/04/06 08:49:08;;;;;;;25.67;4.00;;;;;;;;;;5019647;28;20377;-76
2024/04/06 08:51:37;;;;;;;26.58;3.55;;;;;;;;;;5030175;28;20034;-77
2024/04/06 08:54:04;;;;;;;33.97;4.55;;;;;;;;;;5032933;28;20048;-75
2024/04/06 08:56:30;;;;;;;23.95;3.60;;;;;;;;;;5035844;28;20041;-75
2024/04/06 08:58:56;;;;;;;25.92;3.88;;;;;;;;;;5019323;28;20067;-75
2024/04/06 09:01:21;;;;;;;22.73;3.83;;;;;;;;;;5035488;28;20041;-75
2024/04/06 09:03:47;;;;;;;29.02;3.35;;;;;;;;;;5035996;28;20471;-75
2024/04/06 09:06:19;;;;;;;26.17;4.63;;;;;;;;;;5026322;28;20472;-75
2024/04/06 09:08:46;;;;;;;26.60;4.18;;;;;;;;;;5052274;28;20052;-76
2024/04/06 09:11:14;;;;;;;31.88;4.72;;;;;;;;;;5035376;28;20051;-76
2024/04/06 09:13:43;;;;;;;25.92;4.45;;;;;;;;;;5019131;28;20041;-76
2024/04/06 09:16:09;;;;;;;26.42;5.50;;;;;;;;;;5018895;28;20048;-76
2024/04/06 09:18:38;;;;;;;34.88;5.78;;;;;;;;;;5035459;28;20048;-76
2024/04/06 09:21:07;;;;;;;32.35;5.47;;;;;;;;;;5018770;28;20068;-76
2024/04/06 09:23:34;;;;;;;28.20;3.88;;;;;;;;;;5033537;28;20103;-76
2024/04/06 09:26:03;;;;;;;21.08;3.55;;;;;;;;;;5023448;28;20040;-75
2024/04/06 09:28:30;;;;;;;26.83;4.10;;;;;;;;;;5035487;28;20473;-75
2024/04/06 09:30:58;;;;;;;26.80;4.75;;;;;;;;;;5018618;28;20395;-76
2024/04/06 09:33:26;;;;;;;29.92;4.15;;;;;;;;;;5018421;28;20055;-76
2024/04/06 09:35:52;;;;;;;24.08;4.53;;;;;;;;;;5018475;28;20045;-76
2024/04/06 09:38:18;;;;;;;22.15;3.45;;;;;;;;;;5063399;28;20048;-75
2024/04/06 09:40:46;;;;;;;24.95;3.65;;;;;;;;;;5030374;28;20041;-76
2024/04/06 09:43:13;;;;;;;27.60;3.67;;;;;;;;;;5018050;28;20049;-76
2024/04/06 09:45:40;;;;;;;33.08;4.60;;;;;;;;;;5034957;28;20403;-77
2024/04/06 09:48:08;;;;;;;25.50;3.90;;;;;;;;;;5018078;28;20045;-78
2024/04/06 09:50:36;;;;;;;24.92;3.75;;;;;;;;;;5030475;28;20041;-78
2024/04/06 09:53:02;;;;;;;25.77;3.95;;;;;;;;;;5035253;28;20039;-78
2024/04/06 09:55:31;;;;;;;29.05;4.75;;;;;;;;;;5033792;28;20037;-77
2024/04/06 09:57:57;;;;;;;20.85;3.78;;;;;;;;;;5019141;28;20040;-77
2024/04/06 10:00:23;;;;;;;26.92;4.40;;;;;;;;;;5032336;28;20412;-78
2024/04/06 10:02:53;;;;;;;26.10;3.83;;;;;;;;;;5016537;28;20519;-76
2024/04/06 10:05:18;;;;;;;23.02;3.35;;;;;;;;;;5015417;28;20045;-78
2024/04/06 10:07:52;;;;;;;26.92;4.78;;;;;;;;;;5032047;28;20049;-79
2024/04/06 10:10:33;;;;;;;25.13;3.88;;;;;;;;;;5031863;28;20065;-77
2024/04/06 10:12:58;;;;;;;30.58;4.10;;;;;;;;;;5015738;28;20053;-77
2024/04/06 10:15:27;;;;;;;31.45;4.35;;;;;;;;;;5015704;28;20387;-77
2024/04/06 10:17:54;;;;;;;28.80;4.95;;;;;;;;;;5032488;28;20042;-76
2024/04/06 10:20:23;;;;;;;27.10;4.35;;;;;;;;;;5032538;28;20374;-77
2024/04/06 10:22:51;;;;;;;31.13;4.78;;;;;;;;;;5032504;28;20384;-77
2024/04/06 10:25:23;;;;;;;25.17;4.03;;;;;;;;;;5015751;28;20064;-77
2024/04/06 10:28:01;;;;;;;32.00;3.90;;;;;;;;;;5032135;28;20060;-77
2024/04/06 10:30:28;;;;;;;27.45;3.75;;;;;;;;;;5032105;28;20041;-77
2024/04/06 10:32:54;;;;;;;29.45;4.43;;;;;;;;;;5016101;28;20471;-77
2024/04/06 10:35:20;;;;;;;28.27;4.28;;;;;;;;;;5031785;28;20068;-76
2024/04/06 10:37:47;;;;;;;20.23;3.42;;;;;;;;;;5032187;28;20075;-76
2024/04/06 10:40:13;;;;;;;27.38;4.20;;;;;;;;;;5031705;28;20041;-76
2024/04/06 10:42:40;;;;;;;26.00;4.00;;;;;;;;;;5015679;28;20048;-77
2024/04/06 10:45:08;;;;;;;29.15;5.05;;;;;;;;;;5015668;28;20049;-77
2024/04/06 10:47:36;;;;;;;30.42;4.25;;;;;;;;;;5014595;28;20049;-77
2024/04/06 10:50:02;;;;;;;29.00;4.20;;;;;;;;;;5032038;28;20052;-77
2024/04/06 10:52:29;;;;;;;32.50;4.88;;;;;;;;;;5015287;28;20041;-77
2024/04/06 10:54:55;;;;;;;33.53;4.85;;;;;;;;;;5014159;28;20041;-77
2024/04/06 10:57:22;;;;;;;22.55;4.75;;;;;;;;;;5013626;28;20045;-77
2024/04/06 10:59:48;;;;;;;32.28;4.88;;;;;;;;;;5015139;28;20488;-77
2024/04/06 11:02:15;;;;;;;22.38;3.92;;;;;;;;;;5027161;28;20046;-78
2024/04/06 11:04:43;;;;;;;19.35;3.80;;;;;;;;;;4996167;28;20041;-76
2024/04/06 11:07:10;;;;;;;26.38;3.90;;;;;;;;;;5029066;28;20042;-76
2024/04/06 11:09:36;;;;;;;33.08;4.55;;;;;;;;;;5028760;28;20388;-75
2024/04/06 11:12:02;;;;;;;29.42;4.03;;;;;;;;;;5031362;28;20038;-79
2024/04/06 11:14:29;;;;;;;25.38;4.45;;;;;;;;;;5030971;28;20045;-76
2024/04/06 11:16:55;;;;;;;20.10;3.33;;;;;;;;;;5031668;28;20037;-76
2024/04/06 11:19:24;;;;;;;25.13;3.72;;;;;;;;;;5033969;28;20519;-80
2024/04/06 11:21:50;;;;;;;23.38;3.83;;;;;;;;;;5054035;28;20030;-77
2024/04/06 11:24:16;;;;;;;30.48;4.15;;;;;;;;;;5034899;28;20044;-76
2024/04/06 11:26:42;;;;;;;21.30;3.75;;;;;;;;;;5033492;28;20045;-79
2024/04/06 11:29:10;;;;;;;31.45;4.47;;;;;;;;;;5030538;28;20053;-79
2024/04/06 11:31:37;;;;;;;26.40;3.45;;;;;;;;;;5032102;28;20038;-78
2024/04/06 11:34:03;;;;;;;25.42;4.07;;;;;;;;;;5030861;28;20072;-80
2024/04/06 11:36:29;;;;;;;30.15;4.50;;;;;;;;;;5014017;28;20120;-76
2024/04/06 11:38:56;;;;;;;31.02;4.75;;;;;;;;;;5015060;28;20441;-77
2024/04/06 11:41:21;;;;;;;33.65;3.83;;;;;;;;;;5030916;28;20042;-77
2024/04/06 11:43:47;;;;;;;28.17;4.43;;;;;;;;;;5031317;28;20037;-77
2024/04/06 11:46:13;;;;;;;24.05;4.05;;;;;;;;;;5014494;28;20048;-76
2024/04/06 11:48:39;;;;;;;28.67;4.20;;;;;;;;;;5030721;28;20049;-77
2024/04/06 11:51:04;;;;;;;31.67;4.85;;;;;;;;;;4994567;28;20134;-79
2024/04/06 11:53:34;;;;;;;31.48;4.78;;;;;;;;;;5014394;28;20037;-76
2024/04/06 11:56:01;;;;;;;23.52;4.93;;;;;;;;;;5030570;28;20042;-77
2024/04/06 11:58:27;;;;;;;45.65;5.05;;;;;;;;;;5030230;28;20049;-77
2024/04/06 12:00:53;;;;;;;24.92;4.20;;;;;;;;;;5039067;28;20034;-79
2024/04/06 12:03:19;;;;;;;35.47;4.43;;;;;;;;;;5013277;28;20434;-77
2024/04/06 12:05:46;;;;;;;31.80;5.03;;;;;;;;;;5013834;28;20096;-77
2024/04/06 12:08:12;;;;;;;34.53;4.85;;;;;;;;;;5028704;28;20050;-78
2024/04/06 12:10:37;;;;;;;30.52;4.70;;;;;;;;;;5005780;28;20762;-78
2024/04/06 12:13:03;;;;;;;30.92;5.15;;;;;;;;;;4996947;28;20100;-79
2024/04/06 12:15:30;;;;;;;28.27;3.97;;;;;;;;;;5028237;28;20492;-77
2024/04/06 12:17:55;;;;;;;31.30;4.50;;;;;;;;;;5007745;28;20041;-79
2024/04/06 12:20:21;;;;;;;29.83;4.82;;;;;;;;;;5028770;28;20095;-76
2024/04/06 12:22:47;;;;;;;24.17;3.50;;;;;;;;;;5033549;28;20048;-77
2024/04/06 12:25:13;;;;;;;23.95;3.80;;;;;;;;;;5031979;28;20042;-77
2024/04/06 12:27:38;;;;;;;34.85;4.30;;;;;;;;;;5014011;28;20045;-77
2024/04/06 12:30:09;;;;;;;32.15;4.45;;;;;;;;;;5014813;28;20045;-77
2024/04/06 12:32:35;;;;;;;26.42;4.25;;;;;;;;;;5027613;28;20052;-77
2024/04/06 12:35:01;;;;;;;27.48;3.78;;;;;;;;;;5033312;28;20041;-77
2024/04/06 12:37:27;;;;;;;29.80;4.22;;;;;;;;;;5027081;28;20046;-77
2024/04/06 12:39:53;;;;;;;27.17;4.13;;;;;;;;;;5033210;28;20443;-78
2024/04/06 12:42:19;;;;;;;23.33;3.83;;;;;;;;;;5032758;28;20037;-77
2024/04/06 12:44:44;;;;;;;33.17;4.63;;;;;;;;;;5016481;28;20045;-76
2024/04/06 12:47:10;;;;;;;27.75;3.67;;;;;;;;;;5032177;28;20540;-77
2024/04/06 12:49:37;;;;;;;25.50;4.18;;;;;;;;;;5033117;28;20046;-77
2024/04/06 12:52:03;;;;;;;35.67;4.68;;;;;;;;;;5019548;28;20042;-77
2024/04/06 12:54:29;;;;;;;23.85;4.50;;;;;;;;;;5032584;28;20527;-77
2024/04/06 12:59:39;;;;;;;22.73;3.95;;;;;;;;;;5031950;28;20460;-77
2024/04/06 13:02:06;;;;;;;32.67;4.32;;;;;;;;;;5031935;28;20054;-77
2024/04/06 13:04:33;;;;;;;30.88;4.43;;;;;;;;;;5015467;28;20049;-76
2024/04/06 13:06:59;;;;;;;30.40;4.10;;;;;;;;;;5032441;28;20049;-76
2024/04/06 13:09:25;;;;;;;21.08;3.17;;;;;;;;;;5015987;28;20072;-76
2024/04/06 13:11:50;;;;;;;27.63;4.05;;;;;;;;;;5015027;28;20488;-76
2024/04/06 13:14:16;;;;;;;18.90;3.90;;;;;;;;;;5031852;28;20404;-76
2024/04/06 13:16:42;;;;;;;21.98;3.40;;;;;;;;;;5031471;28;20042;-77
2024/04/06 13:19:08;;;;;;;25.67;3.95;;;;;;;;;;4998086;28;20056;-77
2024/04/06 13:21:34;;;;;;;25.75;3.38;;;;;;;;;;5031120;28;20547;-76
2024/04/06 13:24:00;;;;;;;24.02;3.40;;;;;;;;;;5014900;28;20052;-77
2024/04/06 13:26:25;;;;;;;23.50;3.85;;;;;;;;;;5030902;28;20121;-76
2024/04/06 13:28:51;;;;;;;23.33;3.45;;;;;;;;;;5014672;28;20535;-76
2024/04/06 13:31:17;;;;;;;25.85;4.18;;;;;;;;;;5013980;28;20049;-76
2024/04/06 13:33:43;;;;;;;23.35;3.90;;;;;;;;;;5032266;28;20041;-76
2024/04/06 13:36:09;;;;;;;23.63;3.53;;;;;;;;;;5032032;28;20116;-77
2024/04/06 13:38:35;;;;;;;22.50;3.60;;;;;;;;;;5033001;28;20045;-75
2024/04/06 13:41:00;;;;;;;21.48;3.42;;;;;;;;;;5033515;28;20384;-76
2024/04/06 13:43:26;;;;;;;17.52;3.53;;;;;;;;;;5033019;28;20065;-76
2024/04/06 13:45:53;;;;;;;25.00;3.70;;;;;;;;;;5033302;28;20444;-76
2024/04/06 13:48:19;;;;;;;23.23;3.40;;;;;;;;;;5016632;28;20472;-76
2024/04/06 13:50:51;;;;;;;29.13;3.83;;;;;;;;;;5033326;28;20046;-76
2024/04/06 13:53:17;;;;;;;26.35;3.80;;;;;;;;;;5032986;28;20369;-76
2024/04/06 13:55:44;;;;;;;18.35;3.17;;;;;;;;;;5033325;28;20037;-75
2024/04/06 13:58:10;;;;;;;29.13;4.50;;;;;;;;;;5032791;28;20048;-76
2024/04/06 14:00:36;;;;;;;24.38;3.97;;;;;;;;;;5032970;28;20051;-75
2024/04/06 14:03:02;;;;;;;20.95;3.72;;;;;;;;;;5033327;28;20040;-76
2024/04/06 14:05:29;;;;;;;31.73;3.83;;;;;;;;;;5032739;28;20041;-76
2024/04/06 14:07:55;;;;;;;23.33;3.65;;;;;;;;;;5016654;28;20041;-76
2024/04/06 14:10:21;;;;;;;23.25;3.60;;;;;;;;;;5016145;28;20128;-75
2024/04/06 14:12:46;;;;;;;23.40;3.50;;;;;;;;;;5032893;28;20506;-75
2024/04/06 14:15:13;;;;;;;27.23;4.20;;;;;;;;;;5016148;28;20077;-75
2024/04/06 14:17:39;;;;;;;23.00;3.83;;;;;;;;;;5016478;28;20442;-76
2024/04/06 14:20:08;;;;;;;21.48;3.88;;;;;;;;;;5033097;28;20042;-75
2024/04/06 14:22:38;;;;;;;28.58;3.83;;;;;;;;;;5015883;28;20071;-76
2024/04/06 14:25:05;;;;;;;19.83;3.40;;;;;;;;;;5016340;28;20388;-76
2024/04/06 14:27:31;;;;;;;21.65;3.92;;;;;;;;;;5032212;28;20053;-75
2024/04/06 14:30:21;;;;;;;18.38;3.78;;;;;;;;;;5032603;28;20046;-76